Startpagina
METAR-TAF:

METAR-TAF

Vliegvelden :

Sint Maarten, Nederlandse Antillen

Princess Juliana International Airport

breedte: 18-03N, lengte: 063-07W, hoogte: 4 m

Actueel weer

Dit bericht is 29 minuten geleden gemaakt, om 03:00 UTC
Wind 9 kt uit het oosten
Temperatuur 27°C
Vochtigheid 74%
Druk 1016 hPa
Zicht 10 km of meer
Weinig wolken op 1800 ft

METAR: TNCM 230300Z 10009KT 9999 FEW018 27/22 Q1016 A3000

Tijdstip: 23:29 (03:29 UTC)

Verwachting

Dit bericht is 3 uur en het 36 minuten geleden gemaakt, om 23:53 UTC
Verwachting geldig van 23 om 00 UTC tot 23 om 24 UTC
Wind 10 kt uit het oosten
Zicht: 10 km
Weinig wolken op 1800 ft
Van 23 om 1400 UTC
Wind 14 kt uit het oostnoordoosten
Zicht: 10 km
Verspreide wolken op 1800 ft
Van 23 om 2300 UTC
Wind 10 kt uit het oosten
Zicht: 10 km
Weinig wolken op 2200 ft

TAF: TNCM 222353Z 2300/2324 08010KT P6SM FEW018 FM231400 07014KT P6SM SCT018 FM232300 08010KT P6SM FEW022

Waarnemingen en weersverwachtingen van meer dan 4000 vliegvelden (METAR en TAF).

De beschikbare stations zijn de gele en rode punten op de kaart.

Ga met uw muis naar het station om de naam te zien.

Klik dan om waarnemingen en weersverwachtingen te zien.

kaart wijzigen: klik op de groene knoppen met een zwart kruis om in te zoomen, op de groene knop met een streepje om uit te zoomen of op de groene pijlen voor aangrenzende kaarten.


METAR-TAF: